Time;durP1;ratioP1;P1;durP2;ratioP2;P2;SDS_P1;SDS_P2;PMS_P1;PMS_P2;Temp;Humidity;BMP_temperature;BMP_pressure;BME280_temperature;BME280_humidity;BME280_pressure;Samples;Min_cycle;Max_cycle;Signal;HPM_P1;HPM_P2
2021/12/28 00:01:18;;;;;;;35.70;31.77;;;6.30;99.90;;;;;;5055114;28;20449;-71
2021/12/28 00:03:46;;;;;;;31.47;28.97;;;6.20;99.90;;;;;;5054705;28;21230;-71
2021/12/28 00:06:14;;;;;;;36.33;32.93;;;6.30;99.90;;;;;;5058068;28;20482;-71
2021/12/28 00:08:43;;;;;;;33.90;31.20;;;6.20;99.90;;;;;;5056670;28;20484;-72
2021/12/28 00:11:10;;;;;;;33.97;30.70;;;6.20;99.90;;;;;;5052778;28;20470;-71
2021/12/28 00:13:39;;;;;;;33.70;30.10;;;6.20;99.90;;;;;;5051806;28;20496;-70
2021/12/28 00:16:28;;;;;;;50.57;32.17;;;6.20;99.90;;;;;;5054685;28;20969;-71
2021/12/28 00:18:56;;;;;;;31.97;28.90;;;6.20;99.90;;;;;;5055904;28;20463;-70
2021/12/28 00:21:23;;;;;;;33.73;30.83;;;6.10;99.90;;;;;;5053333;28;20470;-70
2021/12/28 00:23:53;;;;;;;33.20;30.37;;;6.10;99.90;;;;;;5058796;28;20994;-70
2021/12/28 00:26:22;;;;;;;33.17;30.17;;;6.10;99.90;;;;;;5056072;28;20469;-70
2021/12/28 00:28:51;;;;;;;31.10;28.53;;;6.20;99.90;;;;;;5055344;28;20459;-72
2021/12/28 00:31:18;;;;;;;31.77;28.67;;;6.20;99.90;;;;;;5052753;28;21015;-69
2021/12/28 00:33:46;;;;;;;30.10;27.40;;;6.20;99.90;;;;;;5047326;28;20496;-71
2021/12/28 00:36:14;;;;;;;32.43;29.70;;;6.20;99.90;;;;;;5050860;28;20460;-70
2021/12/28 00:38:41;;;;;;;33.13;30.50;;;6.20;99.90;;;;;;5046262;28;20465;-70
2021/12/28 00:41:09;;;;;;;39.23;31.80;;;6.10;99.90;;;;;;5048731;28;20455;-70
2021/12/28 00:43:38;;;;;;;32.70;29.47;;;6.10;99.90;;;;;;5051083;28;21292;-70
2021/12/28 00:46:06;;;;;;;31.67;28.77;;;6.20;99.90;;;;;;5053378;28;20473;-70
2021/12/28 00:48:34;;;;;;;32.50;28.80;;;6.20;99.90;;;;;;5053802;28;20533;-71
2021/12/28 00:51:01;;;;;;;29.73;27.37;;;6.30;99.90;;;;;;5049312;28;20554;-72
2021/12/28 00:53:28;;;;;;;30.07;27.23;;;6.40;99.90;;;;;;5055440;28;21018;-71
2021/12/28 00:55:56;;;;;;;29.97;27.23;;;6.40;99.90;;;;;;5053921;28;20464;-71
2021/12/28 00:58:24;;;;;;;32.43;27.20;;;6.40;99.90;;;;;;5053310;28;20562;-71
2021/12/28 01:00:51;;;;;;;32.27;26.63;;;6.50;99.90;;;;;;5051712;28;20531;-71
2021/12/28 01:03:19;;;;;;;29.00;26.43;;;6.50;99.90;;;;;;5054824;28;20470;-72
2021/12/28 01:05:47;;;;;;;30.13;27.10;;;6.50;99.90;;;;;;5051485;28;20495;-70
2021/12/28 01:08:14;;;;;;;33.27;28.23;;;6.50;99.90;;;;;;5055361;28;20458;-72
2021/12/28 01:10:44;;;;;;;29.10;26.17;;;6.60;99.90;;;;;;5052373;28;20460;-71
2021/12/28 01:13:12;;;;;;;31.33;28.07;;;6.60;99.90;;;;;;5056354;28;20487;-71
2021/12/28 01:15:41;;;;;;;29.90;26.83;;;6.70;99.90;;;;;;5053314;28;20459;-71
2021/12/28 01:18:08;;;;;;;29.53;27.20;;;6.80;99.90;;;;;;5050176;28;20586;-72
2021/12/28 01:20:35;;;;;;;27.23;25.00;;;6.80;99.90;;;;;;5059775;28;20462;-71
2021/12/28 01:23:03;;;;;;;32.87;25.60;;;6.90;99.90;;;;;;5057351;28;20865;-71
2021/12/28 01:25:29;;;;;;;28.60;26.10;;;6.90;99.90;;;;;;5057028;28;20466;-71
2021/12/28 01:27:57;;;;;;;28.17;25.17;;;6.90;99.90;;;;;;5053836;28;20462;-71
2021/12/28 01:30:25;;;;;;;27.53;24.70;;;6.90;99.90;;;;;;5049103;28;20471;-71
2021/12/28 01:32:54;;;;;;;27.20;24.57;;;6.90;99.90;;;;;;5054106;28;20499;-71
2021/12/28 01:35:22;;;;;;;26.60;23.53;;;6.90;99.90;;;;;;5052480;28;20466;-71
2021/12/28 01:37:50;;;;;;;29.30;23.37;;;7.00;99.90;;;;;;5055522;28;20462;-71
2021/12/28 01:40:20;;;;;;;27.07;24.33;;;7.20;99.90;;;;;;5052805;28;20462;-71
2021/12/28 01:43:13;;;;;;;34.70;25.13;;;7.10;99.90;;;;;;5053345;28;20466;-71
2021/12/28 01:45:45;;;;;;;33.37;24.23;;;7.10;99.90;;;;;;5042662;28;20466;-71
2021/12/28 01:48:15;;;;;;;27.63;24.80;;;7.00;99.90;;;;;;5051512;28;20465;-70
2021/12/28 01:50:43;;;;;;;42.53;25.27;;;7.00;99.90;;;;;;5050510;28;20996;-71
2021/12/28 01:53:12;;;;;;;28.90;25.50;;;6.90;99.90;;;;;;5053637;28;20490;-70
2021/12/28 01:55:42;;;;;;;28.37;25.50;;;6.90;99.90;;;;;;5054585;28;20493;-71
2021/12/28 01:58:09;;;;;;;30.37;26.77;;;6.90;99.90;;;;;;5046930;28;20471;-70
2021/12/28 02:00:37;;;;;;;27.57;25.30;;;6.90;99.90;;;;;;5055691;28;20964;-71
2021/12/28 02:03:09;;;;;;;33.03;26.10;;;6.90;99.90;;;;;;5049922;28;20905;-71
2021/12/28 02:05:38;;;;;;;31.63;25.00;;;6.90;99.90;;;;;;5055854;28;20558;-71
2021/12/28 02:08:05;;;;;;;29.87;25.03;;;6.90;99.90;;;;;;5054989;28;20485;-70
2021/12/28 02:10:33;;;;;;;28.90;26.10;;;6.90;99.90;;;;;;5053690;28;20472;-71
2021/12/28 02:13:01;;;;;;;27.40;24.80;;;6.90;99.90;;;;;;5052979;28;20492;-71
2021/12/28 02:15:29;;;;;;;29.87;23.57;;;7.00;99.90;;;;;;5059986;28;20557;-71
2021/12/28 02:17:55;;;;;;;26.67;23.87;;;7.10;99.90;;;;;;5062168;28;20494;-71
2021/12/28 02:20:24;;;;;;;31.40;24.87;;;7.10;99.90;;;;;;5053302;28;20459;-72
2021/12/28 02:22:51;;;;;;;31.37;24.77;;;7.20;99.90;;;;;;5058859;28;20490;-70
2021/12/28 02:25:19;;;;;;;27.17;24.43;;;7.20;99.90;;;;;;5057136;28;20467;-70
2021/12/28 02:27:47;;;;;;;35.10;25.50;;;7.20;99.90;;;;;;5058927;28;20466;-70
2021/12/28 02:30:16;;;;;;;28.50;25.80;;;7.20;99.90;;;;;;5057812;28;20464;-71
2021/12/28 02:32:45;;;;;;;31.20;27.90;;;7.30;99.90;;;;;;5057238;28;20479;-71
2021/12/28 02:35:14;;;;;;;29.70;26.03;;;7.30;99.90;;;;;;5049344;28;20518;-71
2021/12/28 02:37:43;;;;;;;32.03;24.87;;;7.30;99.90;;;;;;5058384;28;20470;-71
2021/12/28 02:40:13;;;;;;;36.50;25.73;;;7.40;99.90;;;;;;5054500;28;20463;-73
2021/12/28 02:42:41;;;;;;;28.97;26.03;;;7.40;99.90;;;;;;5059684;28;20471;-73
2021/12/28 02:45:12;;;;;;;32.10;24.80;;;7.40;99.90;;;;;;5054090;28;20460;-72
2021/12/28 02:47:41;;;;;;;33.43;25.30;;;7.50;99.90;;;;;;5053510;28;20451;-72
2021/12/28 02:50:11;;;;;;;37.53;26.33;;;7.50;99.90;;;;;;5053503;28;20482;-71
2021/12/28 02:52:38;;;;;;;35.53;27.23;;;7.50;99.90;;;;;;5052556;28;20490;-72
2021/12/28 02:55:09;;;;;;;30.40;26.60;;;7.50;99.90;;;;;;5056928;28;20478;-71
2021/12/28 02:57:36;;;;;;;29.27;25.87;;;7.50;99.90;;;;;;5057267;28;20467;-70
2021/12/28 03:00:05;;;;;;;33.20;27.00;;;7.50;99.90;;;;;;5053541;28;20470;-72
2021/12/28 03:02:32;;;;;;;43.00;29.23;;;7.60;99.90;;;;;;5052491;28;20478;-72
2021/12/28 03:04:59;;;;;;;55.97;27.63;;;7.60;99.90;;;;;;5050701;28;20482;-71
2021/12/28 03:07:30;;;;;;;39.17;30.20;;;7.60;99.90;;;;;;5061146;28;20464;-72
2021/12/28 03:09:56;;;;;;;45.23;30.10;;;7.70;99.90;;;;;;5056271;28;20462;-72
2021/12/28 03:12:25;;;;;;;33.37;29.50;;;7.70;99.90;;;;;;5056928;28;20475;-71
2021/12/28 03:14:52;;;;;;;32.90;28.93;;;7.70;99.90;;;;;;5055302;28;20504;-72
2021/12/28 03:17:19;;;;;;;34.80;29.00;;;7.70;99.90;;;;;;5057520;28;20454;-71
2021/12/28 03:19:46;;;;;;;33.80;27.20;;;7.70;99.90;;;;;;5051760;28;20975;-72
2021/12/28 03:22:12;;;;;;;31.93;28.63;;;7.70;99.90;;;;;;5053831;28;20842;-72
2021/12/28 03:24:40;;;;;;;31.43;27.83;;;7.70;99.90;;;;;;5054216;28;20459;-72
2021/12/28 03:27:06;;;;;;;37.60;27.43;;;7.70;99.90;;;;;;5055942;28;20463;-72
2021/12/28 03:29:35;;;;;;;35.70;27.83;;;7.70;99.90;;;;;;5055262;28;20551;-71
2021/12/28 03:32:01;;;;;;;35.30;26.90;;;7.60;99.90;;;;;;5060150;28;20461;-72
2021/12/28 03:34:28;;;;;;;49.20;25.60;;;7.50;99.90;;;;;;5054292;28;20497;-72
2021/12/28 03:36:55;;;;;;;43.87;27.40;;;7.50;99.90;;;;;;5054269;28;20471;-71
2021/12/28 03:39:23;;;;;;;32.90;26.57;;;7.50;99.90;;;;;;5057422;28;20479;-71
2021/12/28 03:41:50;;;;;;;34.00;25.90;;;7.50;99.90;;;;;;5055185;28;20472;-70
2021/12/28 03:44:17;;;;;;;35.43;27.07;;;7.60;99.90;;;;;;5046907;28;20973;-70
2021/12/28 03:46:45;;;;;;;50.23;26.70;;;7.60;99.90;;;;;;5056628;28;20462;-71
2021/12/28 03:49:12;;;;;;;42.57;27.47;;;7.60;99.90;;;;;;5053486;28;20898;-71
2021/12/28 03:51:39;;;;;;;39.57;27.07;;;7.60;99.90;;;;;;5050289;28;20537;-71
2021/12/28 03:54:06;;;;;;;38.63;28.70;;;7.60;99.90;;;;;;5060096;28;20483;-71
2021/12/28 03:56:33;;;;;;;42.67;28.87;;;7.50;99.90;;;;;;5049387;28;20563;-72
2021/12/28 03:59:01;;;;;;;40.23;27.63;;;7.50;99.90;;;;;;5052165;28;20468;-72
2021/12/28 04:01:28;;;;;;;31.67;27.70;;;7.50;99.90;;;;;;5052688;28;20471;-69
2021/12/28 04:03:56;;;;;;;42.63;27.17;;;7.40;99.90;;;;;;5047516;28;20464;-70
2021/12/28 04:06:24;;;;;;;33.07;29.17;;;7.50;99.90;;;;;;5056722;28;20556;-71
2021/12/28 04:08:52;;;;;;;30.07;26.87;;;7.50;99.90;;;;;;5057109;28;20950;-70
2021/12/28 04:11:28;;;;;;;34.77;29.83;;;7.50;99.90;;;;;;5054814;28;20485;-72
2021/12/28 04:13:58;;;;;;;67.63;30.90;;;7.60;99.90;;;;;;5058832;28;20489;-71
2021/12/28 04:16:25;;;;;;;37.93;30.87;;;7.60;99.90;;;;;;5052287;28;20485;-72
2021/12/28 04:18:52;;;;;;;40.40;31.17;;;7.60;99.90;;;;;;5051863;28;20474;-72
2021/12/28 04:21:21;;;;;;;46.70;30.57;;;7.60;99.90;;;;;;5053614;28;20474;-71
2021/12/28 04:23:48;;;;;;;45.27;30.20;;;7.70;99.90;;;;;;5056865;28;20493;-72
2021/12/28 04:26:16;;;;;;;45.77;31.17;;;7.70;99.90;;;;;;5048202;28;20535;-71
2021/12/28 04:28:44;;;;;;;35.70;31.80;;;7.70;99.90;;;;;;5056406;28;20464;-71
2021/12/28 04:31:11;;;;;;;44.40;32.97;;;7.70;99.90;;;;;;5050615;28;20471;-71
2021/12/28 04:33:38;;;;;;;34.93;31.60;;;7.80;99.90;;;;;;5051511;28;20503;-72
2021/12/28 04:36:08;;;;;;;38.90;32.50;;;7.80;99.90;;;;;;5056218;28;20470;-72
2021/12/28 04:38:38;;;;;;;53.33;32.67;;;7.80;99.90;;;;;;5054698;28;20466;-71
2021/12/28 04:41:06;;;;;;;43.73;32.40;;;7.80;99.90;;;;;;5058998;28;20462;-71
2021/12/28 04:43:33;;;;;;;44.60;33.57;;;7.80;99.90;;;;;;5051517;28;20467;-71
2021/12/28 04:46:00;;;;;;;57.63;32.80;;;7.80;99.90;;;;;;5057852;28;20459;-72
2021/12/28 04:48:27;;;;;;;37.10;32.30;;;7.90;99.90;;;;;;5048062;28;20653;-71
2021/12/28 04:50:55;;;;;;;52.13;35.13;;;7.90;99.90;;;;;;5051461;28;20506;-71
2021/12/28 04:53:21;;;;;;;38.87;34.67;;;7.90;99.90;;;;;;5052268;28;20480;-71
2021/12/28 04:55:51;;;;;;;46.20;36.20;;;7.90;99.90;;;;;;5053283;28;20831;-72
2021/12/28 04:58:20;;;;;;;50.17;37.67;;;8.00;99.90;;;;;;5056052;28;20463;-72
2021/12/28 05:00:49;;;;;;;45.83;37.13;;;8.00;99.90;;;;;;5054293;28;21089;-71
2021/12/28 05:03:17;;;;;;;50.33;37.27;;;8.00;99.90;;;;;;5050713;28;20988;-72
2021/12/28 05:05:48;;;;;;;42.97;36.00;;;8.00;99.90;;;;;;5054542;28;20487;-71
2021/12/28 05:08:15;;;;;;;41.67;37.07;;;8.00;99.90;;;;;;5055363;28;20464;-73
2021/12/28 05:10:43;;;;;;;63.60;38.23;;;8.10;99.90;;;;;;5050157;28;20455;-72
2021/12/28 05:13:12;;;;;;;44.33;36.93;;;8.10;99.90;;;;;;5049544;28;20463;-72
2021/12/28 05:15:42;;;;;;;44.30;34.40;;;8.10;99.90;;;;;;5056512;28;20460;-73
2021/12/28 05:18:09;;;;;;;49.07;32.53;;;8.10;99.90;;;;;;5047707;28;20455;-72
2021/12/28 05:20:37;;;;;;;40.67;28.40;;;8.10;99.90;;;;;;5051267;28;20976;-72
2021/12/28 05:23:05;;;;;;;48.83;28.87;;;8.20;99.90;;;;;;5056039;28;20491;-71
2021/12/28 05:25:33;;;;;;;31.90;28.53;;;8.20;99.90;;;;;;5057045;28;20490;-73
2021/12/28 05:28:00;;;;;;;31.57;26.37;;;8.20;99.90;;;;;;5058156;28;20458;-72
2021/12/28 05:30:29;;;;;;;36.87;26.83;;;8.20;99.90;;;;;;5047326;28;20470;-71
2021/12/28 05:32:56;;;;;;;36.23;27.10;;;8.20;99.90;;;;;;5051400;28;20456;-72
2021/12/28 05:35:23;;;;;;;29.93;26.20;;;8.20;99.90;;;;;;5053721;28;20641;-71
2021/12/28 05:37:51;;;;;;;30.23;26.67;;;8.30;99.90;;;;;;5055876;28;20458;-70
2021/12/28 05:40:18;;;;;;;34.27;27.13;;;8.30;99.90;;;;;;5049612;28;20618;-72
2021/12/28 05:42:46;;;;;;;31.40;26.50;;;8.30;99.90;;;;;;5054393;28;20472;-72
2021/12/28 05:45:12;;;;;;;29.23;25.60;;;8.30;99.90;;;;;;5049138;28;20463;-73
2021/12/28 05:47:41;;;;;;;27.30;24.63;;;8.30;99.90;;;;;;5056373;28;20460;-73
2021/12/28 05:50:10;;;;;;;28.03;24.90;;;8.30;99.90;;;;;;5056892;28;20485;-71
2021/12/28 05:52:38;;;;;;;31.00;25.63;;;8.30;99.90;;;;;;5055670;28;20454;-72
2021/12/28 05:55:06;;;;;;;27.57;24.60;;;8.30;99.90;;;;;;5062001;28;20508;-71
2021/12/28 05:57:33;;;;;;;29.20;26.47;;;8.40;99.90;;;;;;5060029;28;20459;-72
2021/12/28 05:59:59;;;;;;;31.87;25.17;;;8.40;99.90;;;;;;5051816;28;20927;-70
2021/12/28 06:02:26;;;;;;;31.60;27.60;;;8.40;99.90;;;;;;5056353;28;20462;-72
2021/12/28 06:04:55;;;;;;;31.17;28.17;;;8.40;99.90;;;;;;5053962;28;20481;-71
2021/12/28 06:07:27;;;;;;;34.03;26.80;;;8.40;99.90;;;;;;5059151;28;20455;-71
2021/12/28 06:09:54;;;;;;;29.30;26.40;;;8.40;99.90;;;;;;5050047;28;21032;-72
2021/12/28 06:12:21;;;;;;;43.90;26.47;;;8.40;99.90;;;;;;5059413;28;20452;-71
2021/12/28 06:14:48;;;;;;;27.87;25.30;;;8.40;99.90;;;;;;5051896;28;21024;-71
2021/12/28 06:17:14;;;;;;;30.37;26.87;;;8.30;99.90;;;;;;5057659;28;20489;-72
2021/12/28 06:19:41;;;;;;;30.17;24.83;;;8.30;99.90;;;;;;5052386;28;23065;-71
2021/12/28 06:22:10;;;;;;;37.07;25.60;;;8.30;99.90;;;;;;5053153;28;20494;-71
2021/12/28 06:24:37;;;;;;;28.80;25.83;;;8.30;99.90;;;;;;5063322;28;20881;-71
2021/12/28 06:27:05;;;;;;;30.50;27.10;;;8.30;99.90;;;;;;5050986;28;20675;-70
2021/12/28 06:29:32;;;;;;;39.17;26.40;;;8.40;99.90;;;;;;5055337;28;20458;-70
2021/12/28 06:31:59;;;;;;;29.33;26.73;;;8.40;99.90;;;;;;5060849;28;20455;-72
2021/12/28 06:34:26;;;;;;;28.03;25.30;;;8.50;99.90;;;;;;5056022;28;20492;-70
2021/12/28 06:36:53;;;;;;;28.80;26.17;;;8.40;99.90;;;;;;5060032;28;20486;-71
2021/12/28 06:39:21;;;;;;;31.10;26.40;;;8.50;99.90;;;;;;5055230;28;20635;-71
2021/12/28 06:41:48;;;;;;;33.30;28.17;;;8.50;99.90;;;;;;5054252;28;20459;-71
2021/12/28 06:44:16;;;;;;;32.23;26.37;;;8.50;99.90;;;;;;5055490;28;20839;-71
2021/12/28 06:46:43;;;;;;;33.73;28.70;;;8.50;99.90;;;;;;5059798;28;21237;-72
2021/12/28 06:49:11;;;;;;;30.10;27.00;;;8.40;99.90;;;;;;5061110;28;20464;-72
2021/12/28 06:51:38;;;;;;;33.93;27.20;;;8.50;99.90;;;;;;5056823;28;20856;-72
2021/12/28 06:54:05;;;;;;;36.53;28.03;;;8.50;99.90;;;;;;5054789;28;20510;-70
2021/12/28 06:56:34;;;;;;;40.23;26.80;;;8.50;99.90;;;;;;5049349;28;20467;-70
2021/12/28 06:59:01;;;;;;;29.07;26.43;;;8.60;99.90;;;;;;5051184;28;20475;-73
2021/12/28 07:01:28;;;;;;;33.10;28.57;;;8.50;99.90;;;;;;5057944;28;20805;-72
2021/12/28 07:03:55;;;;;;;34.57;29.20;;;8.50;99.90;;;;;;5056485;28;20700;-72
2021/12/28 07:06:23;;;;;;;29.17;26.13;;;8.50;99.90;;;;;;5056621;28;20463;-71
2021/12/28 07:08:50;;;;;;;28.33;25.93;;;8.50;99.90;;;;;;5058069;28;20546;-71
2021/12/28 07:11:18;;;;;;;32.40;26.80;;;8.40;99.90;;;;;;5057782;28;20489;-72
2021/12/28 07:13:46;;;;;;;27.30;25.00;;;8.40;99.90;;;;;;5054770;28;20522;-72
2021/12/28 07:16:14;;;;;;;28.03;25.20;;;8.30;99.90;;;;;;5059107;28;20486;-72
2021/12/28 07:18:41;;;;;;;29.43;25.20;;;8.20;99.90;;;;;;5064232;28;20925;-72
2021/12/28 07:21:08;;;;;;;29.40;25.17;;;8.10;99.90;;;;;;5053048;28;20459;-70
2021/12/28 07:23:35;;;;;;;36.40;26.80;;;8.00;99.90;;;;;;5055094;28;20482;-70
2021/12/28 07:26:01;;;;;;;37.87;28.10;;;7.90;99.90;;;;;;5054835;28;20471;-71
2021/12/28 07:28:28;;;;;;;31.70;27.90;;;7.90;99.90;;;;;;5057354;28;20473;-72
2021/12/28 07:30:57;;;;;;;33.53;28.30;;;7.90;99.90;;;;;;5056329;28;20553;-72
2021/12/28 07:33:23;;;;;;;31.63;28.23;;;7.90;99.90;;;;;;5052976;28;20858;-71
2021/12/28 07:35:51;;;;;;;32.07;29.10;;;7.90;99.90;;;;;;5049004;28;20499;-71
2021/12/28 07:38:18;;;;;;;37.23;28.10;;;8.00;99.90;;;;;;5057707;28;21021;-70
2021/12/28 07:40:45;;;;;;;34.93;29.77;;;8.00;99.90;;;;;;5061572;28;20464;-71
2021/12/28 07:43:12;;;;;;;32.80;29.50;;;8.10;99.90;;;;;;5057948;28;20558;-70
2021/12/28 07:45:39;;;;;;;35.70;31.03;;;8.10;99.90;;;;;;5056722;28;20975;-71
2021/12/28 07:48:09;;;;;;;37.30;33.37;;;8.20;99.90;;;;;;5053130;28;20511;-71
2021/12/28 07:50:36;;;;;;;33.00;30.00;;;8.20;99.90;;;;;;5056342;28;20490;-70
2021/12/28 07:53:03;;;;;;;34.93;29.67;;;8.30;99.90;;;;;;5055889;28;20474;-71
2021/12/28 07:55:30;;;;;;;32.00;29.20;;;8.30;99.90;;;;;;5057428;28;20491;-72
2021/12/28 07:57:57;;;;;;;39.07;29.10;;;8.40;99.90;;;;;;5052441;28;20541;-71
2021/12/28 08:00:25;;;;;;;33.20;29.97;;;8.40;99.90;;;;;;5054542;28;20466;-70
2021/12/28 08:02:53;;;;;;;33.30;29.70;;;8.40;99.90;;;;;;5054277;28;20965;-70
2021/12/28 08:05:22;;;;;;;31.40;28.10;;;8.30;99.90;;;;;;5055160;28;20495;-71
2021/12/28 08:07:49;;;;;;;36.37;30.20;;;8.40;99.90;;;;;;5053634;28;20454;-71
2021/12/28 08:10:17;;;;;;;32.23;29.30;;;8.40;99.90;;;;;;5056834;28;20456;-71
2021/12/28 08:12:47;;;;;;;32.37;29.33;;;8.40;99.90;;;;;;5053330;28;20460;-72
2021/12/28 08:15:13;;;;;;;35.47;29.57;;;8.30;99.90;;;;;;5055439;28;21027;-71
2021/12/28 08:17:40;;;;;;;32.07;29.00;;;8.20;99.90;;;;;;5049800;28;20510;-71
2021/12/28 08:20:10;;;;;;;34.17;27.97;;;8.20;99.90;;;;;;5048024;28;20455;-71
2021/12/28 08:22:39;;;;;;;30.00;26.83;;;8.10;99.90;;;;;;5052076;28;20503;-71
2021/12/28 08:25:08;;;;;;;34.13;26.63;;;8.10;99.90;;;;;;5054680;28;20469;-72
2021/12/28 08:27:35;;;;;;;28.33;25.50;;;8.20;99.90;;;;;;5055048;28;20963;-70
2021/12/28 08:30:03;;;;;;;27.77;25.03;;;8.30;99.90;;;;;;5052744;28;20460;-71
2021/12/28 08:32:30;;;;;;;30.37;25.77;;;8.30;99.90;;;;;;5050596;28;20470;-71
2021/12/28 08:34:57;;;;;;;26.83;23.97;;;8.40;99.90;;;;;;5053252;28;20491;-70
2021/12/28 08:37:24;;;;;;;27.13;24.60;;;8.50;99.90;;;;;;5051744;28;20460;-70
2021/12/28 08:39:52;;;;;;;28.10;25.50;;;8.50;99.90;;;;;;5048513;28;20463;-71
2021/12/28 08:42:20;;;;;;;28.53;25.90;;;8.60;99.90;;;;;;5051444;28;20474;-71
2021/12/28 08:44:47;;;;;;;27.73;25.70;;;8.60;99.90;;;;;;5051918;28;20844;-72
2021/12/28 08:47:14;;;;;;;30.23;27.03;;;8.60;99.90;;;;;;5051432;28;20849;-71
2021/12/28 08:49:41;;;;;;;29.73;26.67;;;8.60;99.90;;;;;;5053329;28;20454;-70
2021/12/28 08:52:08;;;;;;;33.37;29.87;;;8.60;99.90;;;;;;5056207;28;20462;-72
2021/12/28 08:54:35;;;;;;;27.67;25.30;;;8.60;99.90;;;;;;5059785;28;21114;-71
2021/12/28 08:57:04;;;;;;;28.40;25.50;;;8.60;99.90;;;;;;5053837;28;20456;-71
2021/12/28 08:59:31;;;;;;;27.43;25.03;;;8.60;99.90;;;;;;5054178;28;20455;-72
2021/12/28 09:01:57;;;;;;;28.67;25.63;;;8.60;99.90;;;;;;5051955;28;20463;-71
2021/12/28 09:04:24;;;;;;;26.80;24.50;;;8.70;99.90;;;;;;5052719;28;20471;-71
2021/12/28 09:06:51;;;;;;;26.90;24.63;;;8.70;99.90;;;;;;5053528;28;20470;-71
2021/12/28 09:09:18;;;;;;;27.27;25.10;;;8.70;99.90;;;;;;5060531;28;20470;-71
2021/12/28 09:11:46;;;;;;;26.40;24.40;;;8.80;99.90;;;;;;5053175;28;20829;-73
2021/12/28 09:14:14;;;;;;;26.73;24.53;;;8.80;99.90;;;;;;5052894;28;20861;-71
2021/12/28 09:16:42;;;;;;;27.97;25.53;;;8.90;99.90;;;;;;5048932;28;20486;-71
2021/12/28 09:19:10;;;;;;;28.10;25.70;;;8.90;99.90;;;;;;5053411;28;20523;-71
2021/12/28 09:21:36;;;;;;;26.60;24.00;;;8.90;99.90;;;;;;5048659;28;20994;-71
2021/12/28 09:24:04;;;;;;;28.67;25.43;;;9.00;99.90;;;;;;5055841;28;20484;-72
2021/12/28 09:26:31;;;;;;;27.00;24.30;;;9.10;99.90;;;;;;5061521;28;20470;-71
2021/12/28 09:28:58;;;;;;;26.97;24.57;;;9.10;99.90;;;;;;5054943;28;20463;-71
2021/12/28 09:31:26;;;;;;;26.10;23.97;;;9.20;99.90;;;;;;5064714;28;20469;-71
2021/12/28 09:33:53;;;;;;;28.00;25.60;;;9.30;99.90;;;;;;5056840;28;20460;-70
2021/12/28 09:36:20;;;;;;;30.97;27.70;;;9.30;99.90;;;;;;5054868;28;20491;-71
2021/12/28 09:38:47;;;;;;;27.70;25.60;;;9.50;99.90;;;;;;5054675;28;20468;-70
2021/12/28 09:41:15;;;;;;;26.73;24.63;;;9.50;99.90;;;;;;5060811;28;20468;-72
2021/12/28 09:43:42;;;;;;;25.30;23.50;;;9.60;99.90;;;;;;5053548;28;20456;-71
2021/12/28 09:46:09;;;;;;;27.00;24.83;;;9.80;99.90;;;;;;5062538;28;20451;-71
2021/12/28 09:48:38;;;;;;;26.33;24.60;;;9.90;99.90;;;;;;5057105;28;20466;-72
2021/12/28 09:51:07;;;;;;;25.13;23.53;;;10.00;99.90;;;;;;5058947;28;20483;-71
2021/12/28 09:53:35;;;;;;;26.03;24.33;;;10.00;99.90;;;;;;5054221;28;21278;-70
2021/12/28 09:56:02;;;;;;;26.13;24.30;;;10.00;99.90;;;;;;5056537;28;20484;-71
2021/12/28 09:58:29;;;;;;;25.67;24.07;;;10.00;99.90;;;;;;5050202;28;20456;-71
2021/12/28 10:00:56;;;;;;;25.13;23.30;;;10.10;99.90;;;;;;5054768;28;20936;-71
2021/12/28 10:03:23;;;;;;;24.10;22.33;;;10.20;99.90;;;;;;5056034;28;20482;-71
2021/12/28 10:05:51;;;;;;;22.60;21.30;;;10.20;99.90;;;;;;5057523;28;20763;-72
2021/12/28 10:08:22;;;;;;;22.40;21.10;;;10.20;99.90;;;;;;5050060;28;20678;-70
2021/12/28 10:10:49;;;;;;;21.67;20.47;;;10.30;99.90;;;;;;5054287;28;20458;-70
2021/12/28 10:13:22;;;;;;;21.23;20.07;;;10.40;99.90;;;;;;5056029;28;20491;-71
2021/12/28 10:15:51;;;;;;;21.47;20.20;;;10.40;99.90;;;;;;5051898;28;21065;-72
2021/12/28 10:18:18;;;;;;;22.60;21.20;;;10.50;99.90;;;;;;5051595;28;20470;-72
2021/12/28 10:20:47;;;;;;;20.60;19.40;;;10.60;99.90;;;;;;5058822;28;20542;-70
2021/12/28 10:23:17;;;;;;;21.93;20.73;;;10.60;99.90;;;;;;5056307;28;20842;-70
2021/12/28 10:25:47;;;;;;;21.27;19.97;;;10.70;99.90;;;;;;5054736;28;20556;-70
2021/12/28 10:28:16;;;;;;;20.80;19.63;;;10.80;99.90;;;;;;5052870;28;20470;-72
2021/12/28 10:30:44;;;;;;;20.57;19.37;;;10.80;99.90;;;;;;5050775;28;20462;-72
2021/12/28 10:33:13;;;;;;;18.87;17.87;;;10.90;99.90;;;;;;5054091;28;20566;-72
2021/12/28 10:35:42;;;;;;;20.00;18.90;;;10.80;99.90;;;;;;5051599;28;20483;-72
2021/12/28 10:38:12;;;;;;;22.30;20.83;;;10.90;99.90;;;;;;5051633;28;20636;-71
2021/12/28 10:40:45;;;;;;;20.80;19.50;;;10.90;99.90;;;;;;5053340;28;20463;-72
2021/12/28 10:43:14;;;;;;;21.23;19.97;;;10.90;99.90;;;;;;5050237;28;20460;-70
2021/12/28 10:45:43;;;;;;;20.10;19.00;;;10.90;99.90;;;;;;5051257;28;20470;-71
2021/12/28 10:48:16;;;;;;;20.20;18.80;;;10.90;99.90;;;;;;5052659;28;20464;-70
2021/12/28 10:50:46;;;;;;;19.23;18.23;;;11.00;99.90;;;;;;5055757;28;20562;-70
2021/12/28 10:53:21;;;;;;;19.30;18.20;;;11.10;99.90;;;;;;5053148;28;20978;-71
2021/12/28 10:55:54;;;;;;;19.70;18.60;;;11.20;99.90;;;;;;5055006;28;20482;-70
2021/12/28 10:58:24;;;;;;;19.10;18.10;;;11.10;99.90;;;;;;5052356;28;20899;-71
2021/12/28 11:00:52;;;;;;;19.30;18.10;;;11.10;99.90;;;;;;5052776;28;20459;-71
2021/12/28 11:03:32;;;;;;;18.90;17.80;;;11.10;99.90;;;;;;5054171;28;20475;-72
2021/12/28 11:06:02;;;;;;;18.87;17.77;;;11.20;99.90;;;;;;5050140;28;20895;-70
2021/12/28 11:08:29;;;;;;;17.43;16.53;;;11.20;99.90;;;;;;5051979;28;20920;-69
2021/12/28 11:11:01;;;;;;;17.77;16.87;;;11.20;99.90;;;;;;5051275;28;21152;-71
2021/12/28 11:13:30;;;;;;;17.30;16.43;;;11.20;99.90;;;;;;5049967;28;20471;-70
2021/12/28 11:15:58;;;;;;;17.93;16.93;;;11.20;99.90;;;;;;5056841;28;20564;-70
2021/12/28 11:18:30;;;;;;;16.00;15.20;;;11.20;99.90;;;;;;5049098;28;20467;-70
2021/12/28 11:20:58;;;;;;;16.40;15.60;;;11.20;99.90;;;;;;5047538;28;20471;-70
2021/12/28 11:23:27;;;;;;;18.50;17.40;;;11.30;99.90;;;;;;5048772;28;20486;-71
2021/12/28 11:26:09;;;;;;;20.00;18.70;;;11.30;99.90;;;;;;5051785;28;20463;-70
2021/12/28 11:28:37;;;;;;;21.53;20.23;;;11.30;99.90;;;;;;5049888;28;20463;-70
2021/12/28 11:31:14;;;;;;;22.90;21.43;;;11.40;99.90;;;;;;5052255;28;20494;-70
2021/12/28 11:33:47;;;;;;;21.97;20.77;;;11.40;99.90;;;;;;5053936;28;20465;-71
2021/12/28 11:36:15;;;;;;;21.73;20.53;;;11.30;99.90;;;;;;5050234;28;20487;-71
2021/12/28 11:38:43;;;;;;;22.70;21.30;;;11.10;99.90;;;;;;5050279;28;20538;-71
2021/12/28 11:41:12;;;;;;;21.97;20.77;;;11.10;99.90;;;;;;5051672;28;20465;-70
2021/12/28 11:43:41;;;;;;;21.63;20.43;;;11.00;99.90;;;;;;5050680;28;20465;-72
2021/12/28 11:46:09;;;;;;;21.57;20.47;;;11.00;99.90;;;;;;5050855;28;20946;-70
2021/12/28 11:48:37;;;;;;;21.23;20.13;;;11.10;99.90;;;;;;5047231;28;20491;-72
2021/12/28 11:51:05;;;;;;;22.17;20.97;;;11.00;99.90;;;;;;5049245;28;20511;-71
2021/12/28 11:53:37;;;;;;;22.27;20.97;;;11.00;99.90;;;;;;5053057;28;20459;-71
2021/12/28 11:56:05;;;;;;;21.50;20.40;;;11.00;99.90;;;;;;5049598;28;20538;-71
2021/12/28 11:58:56;;;;;;;21.87;20.67;;;10.90;99.90;;;;;;5050126;28;20467;-71
2021/12/28 12:01:49;;;;;;;22.77;21.47;;;10.90;99.90;;;;;;5051100;28;20814;-71
2021/12/28 12:04:42;;;;;;;20.53;19.33;;;10.80;99.90;;;;;;5044854;28;20463;-71
2021/12/28 12:07:12;;;;;;;21.20;19.53;;;10.70;99.90;;;;;;5051488;28;20463;-71
2021/12/28 12:10:21;;;;;;;29.87;22.10;;;10.50;99.90;;;;;;5049146;28;20463;-71
2021/12/28 12:13:01;;;;;;;27.40;22.80;;;10.30;99.90;;;;;;5048781;28;20474;-72
2021/12/28 12:15:36;;;;;;;37.33;25.00;;;10.00;99.90;;;;;;5053941;28;20734;-72
2021/12/28 12:18:03;;;;;;;25.97;23.10;;;9.90;99.90;;;;;;5053921;28;20478;-70
2021/12/28 12:20:33;;;;;;;31.00;24.40;;;9.80;99.90;;;;;;5055055;28;20463;-71
2021/12/28 12:23:14;;;;;;;34.63;23.00;;;9.80;99.90;;;;;;5052854;28;20502;-71
2021/12/28 12:25:49;;;;;;;25.57;22.87;;;9.80;99.90;;;;;;5047703;28;20464;-71
2021/12/28 12:28:20;;;;;;;33.90;23.33;;;9.80;99.90;;;;;;5048510;28;20491;-70
2021/12/28 12:30:50;;;;;;;25.27;22.10;;;9.90;99.90;;;;;;5044374;28;20467;-69
2021/12/28 12:33:18;;;;;;;27.17;21.13;;;9.90;99.90;;;;;;5052710;28;20460;-69
2021/12/28 12:35:52;;;;;;;39.33;20.87;;;9.90;99.90;;;;;;5049669;28;20852;-70
2021/12/28 12:38:40;;;;;;;33.90;19.80;;;9.90;99.90;;;;;;5050731;28;20464;-70
2021/12/28 12:41:11;;;;;;;25.13;19.07;;;10.00;99.90;;;;;;5044571;28;20460;-71
2021/12/28 12:43:41;;;;;;;23.73;18.80;;;10.00;99.90;;;;;;5045740;28;20520;-71